Time;durP1;ratioP1;P1;durP2;ratioP2;P2;SDS_P1;SDS_P2;PMS_P1;PMS_P2;Temp;Humidity;BMP_temperature;BMP_pressure;BME280_temperature;BME280_humidity;BME280_pressure;Samples;Min_cycle;Max_cycle;Signal;HPM_P1;HPM_P2
2023/07/05 00:02:14;;;;;;;;;;;20.70;64.80;;;;;;4972399;28;1369;-67
2023/07/05 00:04:39;;;;;;;;;;;20.70;64.80;;;;;;4975133;28;885;-67
2023/07/05 00:07:05;;;;;;;;;;;20.70;64.80;;;;;;4974767;28;951;-67
2023/07/05 00:09:30;;;;;;;;;;;20.70;64.90;;;;;;4955525;28;1758;-67
2023/07/05 00:11:56;;;;;;;;;;;20.70;64.80;;;;;;4974560;28;1895;-67
2023/07/05 00:14:22;;;;;;;;;;;20.70;64.80;;;;;;4974931;28;1377;-67
2023/07/05 00:16:47;;;;;;;;;;;20.70;64.80;;;;;;4973245;28;951;-67
2023/07/05 00:19:13;;;;;;;;;;;20.70;64.90;;;;;;4989679;28;1374;-67
2023/07/05 00:21:38;;;;;;;;;;;20.70;64.80;;;;;;4974210;28;839;-68
2023/07/05 00:24:04;;;;;;;;;;;20.70;64.90;;;;;;4974630;28;1308;-67
2023/07/05 00:26:29;;;;;;;;;;;20.70;64.90;;;;;;4973563;28;1246;-67
2023/07/05 00:28:55;;;;;;;;;;;20.70;64.90;;;;;;4973781;28;1321;-67
2023/07/05 00:31:20;;;;;;;;;;;20.70;64.90;;;;;;4972964;28;1891;-67
2023/07/05 00:33:45;;;;;;;;;;;20.70;64.90;;;;;;4972086;28;1273;-67
2023/07/05 00:36:11;;;;;;;;;;;20.70;64.90;;;;;;4973376;28;848;-67
2023/07/05 00:38:36;;;;;;;;;;;20.70;64.90;;;;;;4974106;28;958;-67
2023/07/05 00:41:02;;;;;;;;;;;20.70;64.90;;;;;;4973079;28;796;-67
2023/07/05 00:43:28;;;;;;;;;;;20.70;65.00;;;;;;4972295;28;1287;-67
2023/07/05 00:45:54;;;;;;;;;;;20.70;65.00;;;;;;4988471;28;797;-67
2023/07/05 00:48:20;;;;;;;;;;;20.70;65.00;;;;;;4973659;28;844;-67
2023/07/05 00:50:47;;;;;;;;;;;20.70;64.90;;;;;;4956653;28;1222;-67
2023/07/05 00:53:13;;;;;;;;;;;20.70;65.00;;;;;;4987827;28;1965;-67
2023/07/05 00:55:39;;;;;;;;;;;20.70;65.00;;;;;;4973549;28;772;-67
2023/07/05 00:58:05;;;;;;;;;;;20.70;65.00;;;;;;4988901;28;896;-67
2023/07/05 01:00:30;;;;;;;;;;;20.70;65.10;;;;;;4972118;28;861;-67
2023/07/05 01:02:56;;;;;;;;;;;20.70;65.00;;;;;;4972774;28;1368;-67
2023/07/05 01:05:21;;;;;;;;;;;20.70;65.00;;;;;;4976572;28;1335;-67
2023/07/05 01:07:47;;;;;;;;;;;20.70;65.00;;;;;;4970851;28;1350;-67
2023/07/05 01:10:19;;;;;;;;;;;20.70;65.10;;;;;;4967594;28;1450;-67
2023/07/05 01:12:47;;;;;;;;;;;20.70;65.10;;;;;;4970214;28;1958;-67
2023/07/05 01:15:13;;;;;;;;;;;20.70;65.10;;;;;;4986628;28;1376;-67
2023/07/05 01:17:46;;;;;;;;;;;20.70;65.10;;;;;;4970940;28;1702;-67
2023/07/05 01:20:27;;;;;;;;;;;20.70;65.10;;;;;;4971044;28;1293;-67
2023/07/05 01:22:55;;;;;;;;;;;20.70;65.10;;;;;;4972824;28;1393;-67
2023/07/05 01:25:32;;;;;;;;;;;20.70;65.10;;;;;;4973083;28;975;-67
2023/07/05 01:28:05;;;;;;;;;;;20.70;65.10;;;;;;4986626;28;1210;-67
2023/07/05 01:30:49;;;;;;;;;;;20.70;65.10;;;;;;4972301;28;1050;-67
2023/07/05 01:33:19;;;;;;;;;;;20.70;65.10;;;;;;4968666;28;1914;-67
2023/07/05 01:35:46;;;;;;;;;;;20.70;65.10;;;;;;4987916;28;809;-67
2023/07/05 01:38:12;;;;;;;;;;;20.70;65.10;;;;;;4972174;28;1105;-67
2023/07/05 01:40:37;;;;;;;;;;;20.70;65.10;;;;;;4970279;28;1518;-67
2023/07/05 01:43:07;;;;;;;;;;;20.70;65.20;;;;;;4968317;28;1273;-67
2023/07/05 01:45:39;;;;;;;;;;;20.70;65.20;;;;;;4987297;28;816;-67
2023/07/05 01:48:08;;;;;;;;;;;20.70;65.20;;;;;;4987903;28;943;-67
2023/07/05 01:50:35;;;;;;;;;;;20.70;65.20;;;;;;4972620;28;1000;-67
2023/07/05 01:53:03;;;;;;;;;;;20.70;65.20;;;;;;4972162;28;1969;-67
2023/07/05 01:55:35;;;;;;;;;;;20.70;65.20;;;;;;4969779;28;871;-67
2023/07/05 01:58:07;;;;;;;;;;;20.70;65.20;;;;;;4971607;28;825;-67
2023/07/05 02:00:32;;;;;;;;;;;20.70;65.30;;;;;;4966850;28;865;-67
2023/07/05 02:02:59;;;;;;;;;;;20.70;65.20;;;;;;4972134;28;1283;-67
2023/07/05 02:05:27;;;;;;;;;;;20.70;65.30;;;;;;4969922;28;864;-67
2023/07/05 02:07:53;;;;;;;;;;;20.70;65.30;;;;;;4969182;28;824;-67
2023/07/05 02:10:18;;;;;;;;;;;20.70;65.30;;;;;;4985859;28;974;-67
2023/07/05 02:12:44;;;;;;;;;;;20.70;65.40;;;;;;4977281;28;1911;-68
2023/07/05 02:15:09;;;;;;;;;;;20.70;65.40;;;;;;4973329;28;904;-67
2023/07/05 02:17:35;;;;;;;;;;;20.70;65.30;;;;;;4973394;28;1070;-67
2023/07/05 02:20:00;;;;;;;;;;;20.60;65.30;;;;;;4971169;28;998;-67
2023/07/05 02:22:26;;;;;;;;;;;20.70;65.30;;;;;;4970544;28;1253;-67
2023/07/05 02:24:51;;;;;;;;;;;20.70;65.40;;;;;;4972310;28;801;-67
2023/07/05 02:27:17;;;;;;;;;;;20.70;65.40;;;;;;4970466;28;1271;-68
2023/07/05 02:29:42;;;;;;;;;;;20.70;65.40;;;;;;4972279;28;871;-67
2023/07/05 02:32:08;;;;;;;;;;;20.70;65.40;;;;;;4970785;28;1903;-67
2023/07/05 02:34:38;;;;;;;;;;;20.70;65.40;;;;;;4972050;28;927;-67
2023/07/05 02:37:03;;;;;;;;;;;20.70;65.40;;;;;;4954971;28;938;-67
2023/07/05 02:39:29;;;;;;;;;;;20.70;65.40;;;;;;4970825;28;892;-67
2023/07/05 02:41:54;;;;;;;;;;;20.70;65.40;;;;;;4971531;28;897;-67
2023/07/05 02:44:20;;;;;;;;;;;20.70;65.40;;;;;;4969847;28;1318;-67
2023/07/05 02:46:45;;;;;;;;;;;20.70;65.40;;;;;;4970017;28;789;-67
2023/07/05 02:49:12;;;;;;;;;;;20.70;65.40;;;;;;4971970;28;923;-67
2023/07/05 02:51:38;;;;;;;;;;;20.70;65.40;;;;;;4986502;28;1902;-67
2023/07/05 02:54:03;;;;;;;;;;;20.70;65.50;;;;;;4970445;28;1828;-67
2023/07/05 02:56:29;;;;;;;;;;;20.70;65.50;;;;;;4971023;28;923;-67
2023/07/05 02:58:54;;;;;;;;;;;20.70;65.50;;;;;;4976886;28;1485;-68
2023/07/05 03:01:20;;;;;;;;;;;20.70;65.50;;;;;;4971753;28;878;-67
2023/07/05 03:03:45;;;;;;;;;;;20.70;65.50;;;;;;4971240;28;1276;-68
2023/07/05 03:06:11;;;;;;;;;;;20.70;65.50;;;;;;4970286;28;919;-68
2023/07/05 03:08:36;;;;;;;;;;;20.70;65.50;;;;;;4970012;28;1034;-68
2023/07/05 03:11:01;;;;;;;;;;;20.70;65.50;;;;;;4971675;28;773;-68
2023/07/05 03:13:30;;;;;;;;;;;20.70;65.50;;;;;;4970678;28;1934;-67
2023/07/05 03:15:56;;;;;;;;;;;20.70;65.60;;;;;;4970872;28;1026;-67
2023/07/05 03:18:22;;;;;;;;;;;20.70;65.60;;;;;;4965483;28;1260;-67
2023/07/05 03:20:47;;;;;;;;;;;20.70;65.60;;;;;;4971560;28;1015;-67
2023/07/05 03:23:13;;;;;;;;;;;20.70;65.60;;;;;;4971310;28;1268;-68
2023/07/05 03:25:39;;;;;;;;;;;20.70;65.60;;;;;;4971713;28;892;-68
2023/07/05 03:28:04;;;;;;;;;;;20.70;65.60;;;;;;4971012;28;1337;-68
2023/07/05 03:30:31;;;;;;;;;;;20.70;65.60;;;;;;4968977;28;824;-68
2023/07/05 03:32:56;;;;;;;;;;;20.70;65.60;;;;;;4969119;28;1902;-68
2023/07/05 03:35:21;;;;;;;;;;;20.70;65.60;;;;;;4974519;28;779;-68
2023/07/05 03:37:47;;;;;;;;;;;20.70;65.60;;;;;;4975823;28;860;-68
2023/07/05 03:40:12;;;;;;;;;;;20.70;65.70;;;;;;4974996;28;808;-68
2023/07/05 03:42:38;;;;;;;;;;;20.70;65.60;;;;;;4974945;28;1303;-68
2023/07/05 03:45:04;;;;;;;;;;;20.70;65.70;;;;;;4971185;28;1776;-68
2023/07/05 03:47:29;;;;;;;;;;;20.70;65.90;;;;;;4970725;28;880;-68
2023/07/05 03:49:55;;;;;;;;;;;20.70;65.70;;;;;;4975261;28;924;-68
2023/07/05 03:52:20;;;;;;;;;;;20.70;65.70;;;;;;4973725;28;1902;-68
2023/07/05 03:54:45;;;;;;;;;;;20.70;65.70;;;;;;4973974;28;1021;-67
2023/07/05 03:57:11;;;;;;;;;;;20.70;65.70;;;;;;4974149;28;828;-67
2023/07/05 03:59:36;;;;;;;;;;;20.70;65.70;;;;;;4975529;28;879;-67
2023/07/05 04:02:02;;;;;;;;;;;20.70;65.70;;;;;;4972561;28;819;-69
2023/07/05 04:04:27;;;;;;;;;;;20.70;65.70;;;;;;4973740;28;839;-68
2023/07/05 04:06:53;;;;;;;;;;;20.70;65.70;;;;;;4974785;28;808;-67
2023/07/05 04:09:18;;;;;;;;;;;20.70;65.70;;;;;;4973781;28;852;-68
2023/07/05 04:11:44;;;;;;;;;;;20.60;65.70;;;;;;4974442;28;1952;-68
2023/07/05 04:14:10;;;;;;;;;;;20.70;65.80;;;;;;4973395;28;1342;-68
2023/07/05 04:16:36;;;;;;;;;;;20.70;65.80;;;;;;4987545;28;868;-67
2023/07/05 04:19:01;;;;;;;;;;;20.70;65.70;;;;;;4972817;28;1377;-68
2023/07/05 04:21:27;;;;;;;;;;;20.70;65.80;;;;;;4988225;28;840;-68
2023/07/05 04:23:52;;;;;;;;;;;20.70;65.70;;;;;;4972848;28;1268;-68
2023/07/05 04:26:19;;;;;;;;;;;20.70;65.80;;;;;;4974327;28;884;-68
2023/07/05 04:28:44;;;;;;;;;;;20.70;65.80;;;;;;4989142;28;1254;-68
2023/07/05 04:31:11;;;;;;;;;;;20.70;65.80;;;;;;4989011;28;2202;-67
2023/07/05 04:33:36;;;;;;;;;;;20.70;65.80;;;;;;4968697;28;1940;-67
2023/07/05 04:36:02;;;;;;;;;;;20.70;65.80;;;;;;4972556;28;1395;-67
2023/07/05 04:38:28;;;;;;;;;;;20.70;65.80;;;;;;4974088;28;1314;-68
2023/07/05 04:40:53;;;;;;;;;;;20.60;65.80;;;;;;4972616;28;1270;-71
2023/07/05 04:43:19;;;;;;;;;;;20.70;65.80;;;;;;4972068;28;1362;-69
2023/07/05 04:45:50;;;;;;;;;;;20.70;65.80;;;;;;4972896;28;924;-66
2023/07/05 04:48:19;;;;;;;;;;;20.70;65.90;;;;;;4987439;28;1019;-67
2023/07/05 04:50:47;;;;;;;;;;;20.70;65.80;;;;;;4986858;28;911;-67
2023/07/05 04:53:12;;;;;;;;;;;20.70;65.90;;;;;;4973252;28;1959;-67
2023/07/05 04:55:43;;;;;;;;;;;20.70;65.90;;;;;;4974223;28;1225;-67
2023/07/05 04:58:09;;;;;;;;;;;20.70;65.90;;;;;;4972552;28;869;-66
2023/07/05 05:00:36;;;;;;;;;;;20.70;65.90;;;;;;4973656;28;900;-68
2023/07/05 05:03:02;;;;;;;;;;;20.70;65.90;;;;;;4976828;28;1386;-68
2023/07/05 05:05:27;;;;;;;;;;;20.70;65.90;;;;;;4974221;28;842;-68
2023/07/05 05:07:53;;;;;;;;;;;20.70;65.90;;;;;;4971415;28;888;-68
2023/07/05 05:10:18;;;;;;;;;;;20.70;65.90;;;;;;4973205;28;892;-68
2023/07/05 05:12:44;;;;;;;;;;;20.60;65.80;;;;;;4973415;28;1914;-68
2023/07/05 05:15:10;;;;;;;;;;;20.70;65.90;;;;;;4973612;28;1145;-68
2023/07/05 05:17:35;;;;;;;;;;;20.70;65.90;;;;;;4971957;28;929;-68
2023/07/05 05:20:01;;;;;;;;;;;20.70;66.00;;;;;;4971512;28;861;-67
2023/07/05 05:22:28;;;;;;;;;;;20.70;65.90;;;;;;4969462;28;1277;-67
2023/07/05 05:24:53;;;;;;;;;;;20.70;66.00;;;;;;4973432;28;809;-67
2023/07/05 05:27:18;;;;;;;;;;;20.70;66.00;;;;;;4971914;28;1325;-67
2023/07/05 05:29:44;;;;;;;;;;;20.70;66.00;;;;;;4987478;28;1446;-66
2023/07/05 05:32:10;;;;;;;;;;;20.70;66.00;;;;;;4971099;28;1903;-66
2023/07/05 05:34:35;;;;;;;;;;;20.70;66.00;;;;;;4973403;28;829;-66
2023/07/05 05:37:01;;;;;;;;;;;20.70;65.90;;;;;;4972597;28;830;-66
2023/07/05 05:39:27;;;;;;;;;;;20.70;66.00;;;;;;4971851;28;928;-66
2023/07/05 05:41:52;;;;;;;;;;;20.70;66.00;;;;;;4971417;28;911;-66
2023/07/05 05:44:18;;;;;;;;;;;20.70;66.00;;;;;;4973372;28;1174;-66
2023/07/05 05:46:43;;;;;;;;;;;20.70;66.00;;;;;;4973744;28;830;-67
2023/07/05 05:49:09;;;;;;;;;;;20.70;66.00;;;;;;4973496;28;916;-66
2023/07/05 05:51:34;;;;;;;;;;;20.70;66.00;;;;;;4970089;28;1972;-67
2023/07/05 05:54:00;;;;;;;;;;;20.70;66.00;;;;;;4970266;28;2410;-67
2023/07/05 05:56:25;;;;;;;;;;;20.70;66.00;;;;;;4962570;28;1140;-68
2023/07/05 05:58:51;;;;;;;;;;;20.70;66.00;;;;;;4971075;28;864;-68
2023/07/05 06:01:19;;;;;;;;;;;20.70;66.10;;;;;;4970995;28;884;-68
2023/07/05 06:03:45;;;;;;;;;;;20.70;66.10;;;;;;4972402;28;1376;-68
2023/07/05 06:06:10;;;;;;;;;;;20.70;66.10;;;;;;4973034;28;903;-68
2023/07/05 06:08:36;;;;;;;;;;;20.70;66.10;;;;;;4971581;28;1221;-69
2023/07/05 06:11:05;;;;;;;;;;;20.70;66.10;;;;;;4972881;28;958;-69
2023/07/05 06:13:31;;;;;;;;;;;20.70;66.10;;;;;;4983965;28;1911;-67
2023/07/05 06:15:57;;;;;;;;;;;20.70;66.10;;;;;;4971384;28;916;-67
2023/07/05 06:18:22;;;;;;;;;;;20.70;66.10;;;;;;4971175;28;1307;-68
2023/07/05 06:20:48;;;;;;;;;;;20.70;66.10;;;;;;4971552;28;952;-69
2023/07/05 06:23:13;;;;;;;;;;;20.70;66.10;;;;;;4970019;28;1272;-67
2023/07/05 06:25:39;;;;;;;;;;;20.60;66.10;;;;;;4987057;28;806;-68
2023/07/05 06:28:04;;;;;;;;;;;20.70;66.10;;;;;;4970947;28;1267;-68
2023/07/05 06:30:29;;;;;;;;;;;20.70;66.10;;;;;;4969784;28;1026;-67
2023/07/05 06:32:55;;;;;;;;;;;20.70;66.10;;;;;;4968861;28;1939;-67
2023/07/05 06:35:20;;;;;;;;;;;20.70;66.10;;;;;;4970908;28;780;-67
2023/07/05 06:37:46;;;;;;;;;;;20.70;66.20;;;;;;4972063;28;987;-68
2023/07/05 06:40:12;;;;;;;;;;;20.70;66.10;;;;;;4970753;28;802;-67
2023/07/05 06:42:37;;;;;;;;;;;20.70;66.20;;;;;;4970470;28;1256;-67
2023/07/05 06:45:03;;;;;;;;;;;20.70;66.20;;;;;;4970747;28;860;-67
2023/07/05 06:47:28;;;;;;;;;;;20.70;66.10;;;;;;4972405;28;788;-67
2023/07/05 06:49:53;;;;;;;;;;;20.70;66.20;;;;;;4969969;28;892;-67
2023/07/05 06:52:19;;;;;;;;;;;20.70;66.20;;;;;;4970453;28;1902;-67
2023/07/05 06:54:44;;;;;;;;;;;20.70;66.20;;;;;;4969150;28;1294;-67
2023/07/05 06:57:10;;;;;;;;;;;20.70;66.20;;;;;;4969967;28;886;-67
2023/07/05 06:59:35;;;;;;;;;;;20.70;66.20;;;;;;4970550;28;1659;-67
2023/07/05 07:02:01;;;;;;;;;;;20.70;66.20;;;;;;4986409;28;940;-67
2023/07/05 07:04:28;;;;;;;;;;;20.70;66.20;;;;;;4966785;28;1860;-67
2023/07/05 07:06:53;;;;;;;;;;;20.70;66.30;;;;;;4967183;28;1159;-67
2023/07/05 07:09:18;;;;;;;;;;;20.70;66.20;;;;;;4967147;28;2045;-67
2023/07/05 07:11:44;;;;;;;;;;;20.70;66.30;;;;;;4969484;28;2205;-67
2023/07/05 07:14:09;;;;;;;;;;;20.70;66.20;;;;;;4969755;28;1495;-67
2023/07/05 07:16:35;;;;;;;;;;;20.70;66.20;;;;;;4984581;28;1596;-67
2023/07/05 07:19:00;;;;;;;;;;;20.70;66.30;;;;;;4969078;28;2162;-67
2023/07/05 07:21:26;;;;;;;;;;;20.70;66.30;;;;;;4968743;28;1596;-68
2023/07/05 07:23:52;;;;;;;;;;;20.70;66.30;;;;;;4968084;28;1875;-68
2023/07/05 07:26:21;;;;;;;;;;;20.70;66.30;;;;;;4977278;28;1318;-68
2023/07/05 07:28:47;;;;;;;;;;;20.70;66.30;;;;;;4970009;28;1361;-68
2023/07/05 07:31:20;;;;;;;;;;;20.70;66.30;;;;;;4969982;28;783;-68
2023/07/05 07:33:45;;;;;;;;;;;20.70;66.30;;;;;;4986868;28;1926;-68
2023/07/05 07:36:11;;;;;;;;;;;20.70;67.10;;;;;;4971572;28;841;-68
2023/07/05 07:38:38;;;;;;;;;;;20.60;66.20;;;;;;4985468;28;896;-68
2023/07/05 07:41:04;;;;;;;;;;;20.70;66.30;;;;;;4973330;28;1297;-68
2023/07/05 07:43:29;;;;;;;;;;;20.70;66.30;;;;;;4969289;28;1216;-68
2023/07/05 07:45:54;;;;;;;;;;;20.70;66.30;;;;;;4970804;28;892;-68
2023/07/05 07:48:20;;;;;;;;;;;20.70;66.30;;;;;;4971049;28;1002;-67
2023/07/05 07:50:52;;;;;;;;;;;20.60;66.30;;;;;;4970387;28;898;-68
2023/07/05 07:53:18;;;;;;;;;;;20.70;66.40;;;;;;4970997;28;1910;-67
2023/07/05 07:55:44;;;;;;;;;;;20.70;66.40;;;;;;4971415;28;1628;-67
2023/07/05 07:58:09;;;;;;;;;;;20.70;66.40;;;;;;4971286;28;995;-68
2023/07/05 08:00:35;;;;;;;;;;;20.70;66.40;;;;;;4970872;28;891;-68
2023/07/05 08:03:00;;;;;;;;;;;20.70;66.40;;;;;;4971110;28;1363;-68
2023/07/05 08:05:27;;;;;;;;;;;20.70;66.40;;;;;;4970886;28;872;-68
2023/07/05 08:07:54;;;;;;;;;;;20.70;66.40;;;;;;4970554;28;919;-68
2023/07/05 08:10:20;;;;;;;;;;;20.70;66.40;;;;;;4970679;28;879;-68
2023/07/05 08:12:45;;;;;;;;;;;20.60;66.40;;;;;;4970901;28;1976;-67
2023/07/05 08:15:11;;;;;;;;;;;20.70;66.40;;;;;;4970588;28;813;-67
2023/07/05 08:17:36;;;;;;;;;;;20.70;66.40;;;;;;4971243;28;895;-67
2023/07/05 08:20:03;;;;;;;;;;;20.70;66.40;;;;;;4970674;28;1354;-68
2023/07/05 08:22:29;;;;;;;;;;;20.70;66.40;;;;;;4974288;28;1273;-68
2023/07/05 08:24:55;;;;;;;;;;;20.60;66.40;;;;;;4974515;28;808;-68
2023/07/05 08:27:20;;;;;;;;;;;20.70;66.40;;;;;;4974371;28;1361;-67
2023/07/05 08:29:46;;;;;;;;;;;20.70;66.40;;;;;;4974975;28;780;-68
2023/07/05 08:32:11;;;;;;;;;;;20.70;66.40;;;;;;4974237;28;1894;-68
2023/07/05 08:34:37;;;;;;;;;;;20.70;66.50;;;;;;4972564;28;883;-68
2023/07/05 08:37:03;;;;;;;;;;;20.70;66.50;;;;;;4974290;28;931;-68
2023/07/05 08:39:31;;;;;;;;;;;20.70;66.40;;;;;;4974394;28;867;-68
2023/07/05 08:42:18;;;;;;;;;;;20.70;66.50;;;;;;4971188;28;848;-68
2023/07/05 08:44:53;;;;;;;;;;;20.70;66.50;;;;;;4972521;28;884;-68
2023/07/05 08:47:21;;;;;;;;;;;20.70;66.50;;;;;;4988685;28;983;-68
2023/07/05 08:49:49;;;;;;;;;;;20.70;66.50;;;;;;4973014;28;825;-68
2023/07/05 08:52:20;;;;;;;;;;;20.70;66.50;;;;;;4972815;28;1902;-68
2023/07/05 08:54:45;;;;;;;;;;;20.70;66.50;;;;;;4972780;28;892;-68
2023/07/05 08:57:20;;;;;;;;;;;20.70;66.50;;;;;;4971512;28;780;-68
2023/07/05 08:59:57;;;;;;;;;;;20.70;66.50;;;;;;4968478;28;899;-68
2023/07/05 09:02:23;;;;;;;;;;;20.70;66.50;;;;;;4986682;28;1347;-68
2023/07/05 09:04:49;;;;;;;;;;;20.70;66.50;;;;;;4973253;28;797;-68
2023/07/05 09:07:24;;;;;;;;;;;20.70;66.60;;;;;;4986722;28;936;-68
2023/07/05 09:09:55;;;;;;;;;;;20.70;66.50;;;;;;4973565;28;846;-68
2023/07/05 09:12:26;;;;;;;;;;;20.70;66.50;;;;;;4973483;28;1973;-68
2023/07/05 09:15:11;;;;;;;;;;;20.70;66.60;;;;;;4971609;28;829;-68
2023/07/05 09:17:45;;;;;;;;;;;20.70;66.50;;;;;;4973543;28;767;-68
2023/07/05 09:20:24;;;;;;;;;;;20.70;66.50;;;;;;4973014;28;971;-68
2023/07/05 09:22:49;;;;;;;;;;;20.60;66.50;;;;;;4967712;28;1376;-68
2023/07/05 09:25:15;;;;;;;;;;;20.70;66.60;;;;;;4972305;28;824;-68
2023/07/05 09:27:43;;;;;;;;;;;20.70;66.60;;;;;;4970545;28;1121;-68
2023/07/05 09:30:17;;;;;;;;;;;20.70;66.60;;;;;;4986960;28;815;-67
2023/07/05 09:32:44;;;;;;;;;;;20.60;66.50;;;;;;4971153;28;1906;-67
2023/07/05 09:35:15;;;;;;;;;;;20.70;66.60;;;;;;4970880;28;935;-68
2023/07/05 09:37:41;;;;;;;;;;;20.70;66.70;;;;;;4969124;28;880;-68
2023/07/05 09:40:23;;;;;;;;;;;20.70;66.60;;;;;;4971657;28;1006;-68
2023/07/05 09:42:55;;;;;;;;;;;20.70;66.60;;;;;;4988033;28;1209;-68
2023/07/05 09:45:20;;;;;;;;;;;20.70;66.70;;;;;;4972835;28;840;-68
2023/07/05 09:47:46;;;;;;;;;;;20.60;66.50;;;;;;4973250;28;873;-68
2023/07/05 09:50:17;;;;;;;;;;;20.70;66.60;;;;;;4972984;28;813;-68
2023/07/05 09:52:43;;;;;;;;;;;20.70;66.60;;;;;;4984444;28;1898;-68
2023/07/05 09:55:11;;;;;;;;;;;20.70;66.70;;;;;;4987403;28;991;-67
2023/07/05 09:57:38;;;;;;;;;;;20.70;66.70;;;;;;4988017;28;1026;-68
2023/07/05 10:00:04;;;;;;;;;;;20.70;66.70;;;;;;4972952;28;918;-67
2023/07/05 10:02:31;;;;;;;;;;;20.70;66.60;;;;;;4969052;28;1394;-68
2023/07/05 10:04:58;;;;;;;;;;;20.70;66.70;;;;;;4970986;28;889;-68
2023/07/05 10:07:24;;;;;;;;;;;20.70;66.70;;;;;;4971207;28;885;-67
2023/07/05 10:09:54;;;;;;;;;;;20.70;66.70;;;;;;4970453;28;816;-68
2023/07/05 10:12:19;;;;;;;;;;;20.70;66.70;;;;;;4971663;28;1915;-68
2023/07/05 10:14:45;;;;;;;;;;;20.70;66.70;;;;;;4972280;28;1055;-68
2023/07/05 10:17:11;;;;;;;;;;;20.70;66.70;;;;;;4968793;28;1361;-68
2023/07/05 10:19:40;;;;;;;;;;;20.70;66.70;;;;;;4972578;28;1342;-68
2023/07/05 10:22:25;;;;;;;;;;;20.60;66.60;;;;;;4970724;28;1239;-68
2023/07/05 10:24:51;;;;;;;;;;;20.70;66.70;;;;;;4971790;28;893;-68
2023/07/05 10:27:20;;;;;;;;;;;20.70;66.70;;;;;;4970342;28;957;-68
2023/07/05 10:29:49;;;;;;;;;;;20.70;66.70;;;;;;4972220;28;932;-68
2023/07/05 10:32:22;;;;;;;;;;;20.70;66.70;;;;;;4969062;28;1914;-68
2023/07/05 10:34:48;;;;;;;;;;;20.70;66.70;;;;;;4971442;28;1227;-67
2023/07/05 10:37:23;;;;;;;;;;;20.70;66.70;;;;;;4970502;28;874;-68
2023/07/05 10:39:49;;;;;;;;;;;20.70;66.70;;;;;;4970749;28;815;-68
2023/07/05 10:42:15;;;;;;;;;;;20.60;66.70;;;;;;4971993;28;1331;-68
2023/07/05 10:44:41;;;;;;;;;;;20.70;66.80;;;;;;4986304;28;780;-68
2023/07/05 10:47:08;;;;;;;;;;;20.60;66.70;;;;;;4968726;28;881;-68
2023/07/05 10:49:34;;;;;;;;;;;20.70;66.70;;;;;;4985879;28;912;-68
2023/07/05 10:52:00;;;;;;;;;;;20.70;66.70;;;;;;4986324;28;1902;-68
2023/07/05 10:54:42;;;;;;;;;;;20.70;66.80;;;;;;4985651;28;1108;-68
2023/07/05 10:57:26;;;;;;;;;;;20.70;66.80;;;;;;4969583;28;1155;-67
2023/07/05 11:00:12;;;;;;;;;;;20.70;66.80;;;;;;4970606;28;903;-68
2023/07/05 11:02:39;;;;;;;;;;;20.70;66.80;;;;;;4971134;28;1241;-67
2023/07/05 11:05:25;;;;;;;;;;;20.70;66.80;;;;;;4971786;28;896;-68
2023/07/05 11:07:51;;;;;;;;;;;20.70;66.80;;;;;;4962487;28;1117;-68
2023/07/05 11:10:16;;;;;;;;;;;20.70;66.80;;;;;;4982304;28;861;-68
2023/07/05 11:12:42;;;;;;;;;;;20.60;66.70;;;;;;4970251;28;1970;-67
2023/07/05 11:15:10;;;;;;;;;;;20.70;66.80;;;;;;4969116;28;942;-67
2023/07/05 11:17:36;;;;;;;;;;;20.60;66.80;;;;;;4965707;28;803;-68
2023/07/05 11:20:02;;;;;;;;;;;20.70;66.80;;;;;;4985181;28;1461;-67
2023/07/05 11:22:41;;;;;;;;;;;20.70;66.90;;;;;;4986148;28;1264;-67
2023/07/05 11:25:16;;;;;;;;;;;20.70;66.80;;;;;;4968037;28;904;-67
2023/07/05 11:27:47;;;;;;;;;;;20.70;66.80;;;;;;4970881;28;1241;-68
2023/07/05 11:30:33;;;;;;;;;;;20.70;66.80;;;;;;4986165;28;827;-68
2023/07/05 11:33:01;;;;;;;;;;;20.60;66.80;;;;;;4960310;28;1906;-68
2023/07/05 11:35:47;;;;;;;;;;;20.70;66.80;;;;;;4970519;28;805;-67
2023/07/05 11:38:51;;;;;;;;;;;20.70;66.80;;;;;;4961171;28;1156;-68
2023/07/05 11:41:23;;;;;;;;;;;20.60;66.80;;;;;;4926629;29;1289;-68
2023/07/05 11:44:01;;;;;;;;;;;20.70;66.90;;;;;;4921697;29;1324;-68
2023/07/05 11:46:33;;;;;;;;;;;20.70;66.90;;;;;;4950799;28;986;-68
2023/07/05 11:49:13;;;;;;;;;;;20.70;66.90;;;;;;4968928;28;1019;-68
2023/07/05 11:51:39;;;;;;;;;;;20.70;66.90;;;;;;4969948;28;1126;-68
2023/07/05 11:54:04;;;;;;;;;;;20.60;66.80;;;;;;4984221;28;1952;-68
2023/07/05 11:56:29;;;;;;;;;;;20.70;66.90;;;;;;4989172;28;864;-68
2023/07/05 11:58:55;;;;;;;;;;;20.70;66.90;;;;;;4974062;28;830;-68
2023/07/05 12:01:27;;;;;;;;;;;20.60;66.90;;;;;;4990209;28;1030;-68
2023/07/05 12:03:55;;;;;;;;;;;20.60;66.90;;;;;;4989047;28;1260;-68
2023/07/05 12:06:21;;;;;;;;;;;20.70;66.90;;;;;;4989700;28;922;-68
2023/07/05 12:08:48;;;;;;;;;;;20.70;66.90;;;;;;4989161;28;860;-68
2023/07/05 12:11:17;;;;;;;;;;;20.70;66.90;;;;;;4989368;28;896;-68
2023/07/05 12:13:42;;;;;;;;;;;20.70;66.90;;;;;;4973118;28;1891;-68
2023/07/05 12:16:12;;;;;;;;;;;20.70;66.90;;;;;;4974918;28;808;-68
2023/07/05 12:18:37;;;;;;;;;;;20.60;66.90;;;;;;4989226;28;1314;-68
2023/07/05 12:21:03;;;;;;;;;;;20.70;66.90;;;;;;4989584;28;1282;-68
2023/07/05 12:23:29;;;;;;;;;;;20.60;66.90;;;;;;4972861;28;1335;-67
2023/07/05 12:25:55;;;;;;;;;;;20.70;66.90;;;;;;4974682;28;1189;-68
2023/07/05 12:28:22;;;;;;;;;;;20.70;67.00;;;;;;4973412;28;1312;-68
2023/07/05 12:30:47;;;;;;;;;;;20.70;67.00;;;;;;4987357;28;1281;-68
2023/07/05 12:33:21;;;;;;;;;;;20.70;67.00;;;;;;4971575;28;1906;-68
2023/07/05 12:35:46;;;;;;;;;;;20.70;67.00;;;;;;4972940;28;840;-68
2023/07/05 12:38:16;;;;;;;;;;;20.70;67.00;;;;;;4974755;28;998;-68
2023/07/05 12:40:41;;;;;;;;;;;20.70;67.00;;;;;;4972160;28;907;-68
2023/07/05 12:43:09;;;;;;;;;;;20.60;66.90;;;;;;4972566;28;1182;-68
2023/07/05 12:45:36;;;;;;;;;;;20.70;67.00;;;;;;4975671;28;1176;-67
2023/07/05 12:48:14;;;;;;;;;;;20.70;67.00;;;;;;4973577;28;1031;-68
2023/07/05 12:50:40;;;;;;;;;;;20.60;66.90;;;;;;4968179;28;920;-68
2023/07/05 12:53:11;;;;;;;;;;;20.70;67.00;;;;;;4973901;28;1911;-68
2023/07/05 12:55:37;;;;;;;;;;;20.70;67.00;;;;;;4989616;28;836;-68
2023/07/05 12:58:03;;;;;;;;;;;20.70;67.70;;;;;;4990079;28;833;-68
2023/07/05 13:00:28;;;;;;;;;;;20.70;67.00;;;;;;4973987;28;848;-68
2023/07/05 13:02:56;;;;;;;;;;;20.70;67.00;;;;;;4971740;28;1327;-68
2023/07/05 13:05:22;;;;;;;;;;;20.70;67.00;;;;;;4973976;28;848;-68
2023/07/05 13:07:48;;;;;;;;;;;20.70;67.00;;;;;;4984122;28;1712;-68
2023/07/05 13:10:13;;;;;;;;;;;20.70;67.00;;;;;;4971996;28;805;-68
2023/07/05 13:12:42;;;;;;;;;;;20.70;67.00;;;;;;4972099;28;1973;-68
2023/07/05 13:15:08;;;;;;;;;;;20.70;67.00;;;;;;4971422;28;872;-68
2023/07/05 13:17:35;;;;;;;;;;;20.70;67.00;;;;;;4977455;28;1521;-68
2023/07/05 13:20:19;;;;;;;;;;;20.60;67.00;;;;;;4969961;28;1380;-68
2023/07/05 13:22:57;;;;;;;;;;;20.70;67.00;;;;;;4987979;28;1354;-68
2023/07/05 13:25:32;;;;;;;;;;;20.70;67.00;;;;;;4972189;28;923;-68
2023/07/05 13:27:58;;;;;;;;;;;20.70;67.10;;;;;;4973427;28;1239;-68
2023/07/05 13:30:23;;;;;;;;;;;20.70;67.10;;;;;;4973594;28;971;-68
2023/07/05 13:32:52;;;;;;;;;;;20.70;67.10;;;;;;4972129;28;1967;-68
2023/07/05 13:35:17;;;;;;;;;;;20.70;67.10;;;;;;4971790;28;779;-68
2023/07/05 13:37:43;;;;;;;;;;;20.60;67.00;;;;;;4971839;28;842;-68
2023/07/05 13:40:15;;;;;;;;;;;20.70;67.10;;;;;;4973526;28;974;-68
2023/07/05 13:42:41;;;;;;;;;;;20.70;67.10;;;;;;4984974;28;1338;-68
2023/07/05 13:45:17;;;;;;;;;;;20.70;67.10;;;;;;4969075;28;1021;-68
2023/07/05 13:47:43;;;;;;;;;;;20.60;67.00;;;;;;4986540;28;894;-68
2023/07/05 13:50:08;;;;;;;;;;;20.70;67.10;;;;;;4988341;28;848;-68
2023/07/05 13:52:34;;;;;;;;;;;20.70;67.10;;;;;;4972071;28;1972;-68
2023/07/05 13:54:59;;;;;;;;;;;20.70;67.10;;;;;;4971091;28;997;-68
2023/07/05 13:57:25;;;;;;;;;;;20.70;67.10;;;;;;4970012;28;1019;-68
2023/07/05 13:59:50;;;;;;;;;;;20.70;67.10;;;;;;4969298;28;817;-68
2023/07/05 14:02:29;;;;;;;;;;;20.70;67.10;;;;;;4972698;28;1295;-68
2023/07/05 14:04:54;;;;;;;;;;;20.70;67.90;;;;;;4985663;28;813;-68
2023/07/05 14:07:23;;;;;;;;;;;20.70;67.10;;;;;;4966739;28;833;-68
2023/07/05 14:09:49;;;;;;;;;;;20.60;67.00;;;;;;4960636;28;1230;-68
2023/07/05 14:12:15;;;;;;;;;;;20.70;67.10;;;;;;4970651;28;1938;-68
2023/07/05 14:14:40;;;;;;;;;;;20.70;67.10;;;;;;4972704;28;1081;-68
2023/07/05 14:17:09;;;;;;;;;;;20.60;67.00;;;;;;4971053;28;1011;-67
2023/07/05 14:19:34;;;;;;;;;;;20.60;67.10;;;;;;4986800;28;1567;-68
2023/07/05 14:22:00;;;;;;;;;;;20.70;67.20;;;;;;4970511;28;1274;-68
2023/07/05 14:24:25;;;;;;;;;;;20.70;67.10;;;;;;4968841;28;1264;-67
2023/07/05 14:26:51;;;;;;;;;;;20.70;67.10;;;;;;4972099;28;1343;-68
2023/07/05 14:29:16;;;;;;;;;;;20.60;67.10;;;;;;4963090;28;1356;-68
2023/07/05 14:31:43;;;;;;;;;;;20.70;67.10;;;;;;4970700;28;809;-68
2023/07/05 14:34:11;;;;;;;;;;;20.70;67.20;;;;;;4970469;28;1976;-68
2023/07/05 14:36:36;;;;;;;;;;;20.70;67.20;;;;;;4971087;28;872;-68
2023/07/05 14:39:02;;;;;;;;;;;20.70;67.20;;;;;;4972470;28;884;-67